sensor_id;sensor_type;location;lat;lon;timestamp;P1;durP1;ratioP1;P2;durP2;ratioP2
59458;SDS011;45269;43.568;22.244;2023-04-25T00:00:33;19.67;;;17.42;;
59458;SDS011;45269;43.568;22.244;2023-04-25T00:02:59;19.98;;;17.48;;
59458;SDS011;45269;43.568;22.244;2023-04-25T00:05:25;21.27;;;18.10;;
59458;SDS011;45269;43.568;22.244;2023-04-25T00:07:51;17.73;;;14.70;;
59458;SDS011;45269;43.568;22.244;2023-04-25T00:10:16;15.55;;;13.60;;
59458;SDS011;45269;43.568;22.244;2023-04-25T00:12:41;18.73;;;12.40;;
59458;SDS011;45269;43.568;22.244;2023-04-25T00:15:07;11.30;;;9.90;;
59458;SDS011;45269;43.568;22.244;2023-04-25T00:17:33;14.10;;;11.00;;
59458;SDS011;45269;43.568;22.244;2023-04-25T00:20:00;16.55;;;10.95;;
59458;SDS011;45269;43.568;22.244;2023-04-25T00:22:25;9.52;;;8.45;;
59458;SDS011;45269;43.568;22.244;2023-04-25T00:24:50;10.23;;;8.48;;
59458;SDS011;45269;43.568;22.244;2023-04-25T00:27:18;11.02;;;6.60;;
59458;SDS011;45269;43.568;22.244;2023-04-25T00:29:43;6.82;;;5.90;;
59458;SDS011;45269;43.568;22.244;2023-04-25T00:32:09;8.90;;;6.95;;
59458;SDS011;45269;43.568;22.244;2023-04-25T00:34:34;6.82;;;6.22;;
59458;SDS011;45269;43.568;22.244;2023-04-25T00:37:00;7.85;;;5.70;;
59458;SDS011;45269;43.568;22.244;2023-04-25T00:39:27;8.13;;;5.07;;
59458;SDS011;45269;43.568;22.244;2023-04-25T00:41:52;14.77;;;9.30;;
59458;SDS011;45269;43.568;22.244;2023-04-25T00:44:19;27.00;;;15.93;;
59458;SDS011;45269;43.568;22.244;2023-04-25T00:46:45;10.38;;;6.68;;
59458;SDS011;45269;43.568;22.244;2023-04-25T00:49:12;8.68;;;7.57;;
59458;SDS011;45269;43.568;22.244;2023-04-25T00:51:40;7.57;;;5.50;;
59458;SDS011;45269;43.568;22.244;2023-04-25T00:54:06;6.20;;;5.38;;
59458;SDS011;45269;43.568;22.244;2023-04-25T00:56:31;7.10;;;5.13;;
59458;SDS011;45269;43.568;22.244;2023-04-25T00:58:57;6.07;;;5.30;;
59458;SDS011;45269;43.568;22.244;2023-04-25T01:01:22;4.13;;;3.30;;
59458;SDS011;45269;43.568;22.244;2023-04-25T01:03:47;4.10;;;3.70;;
59458;SDS011;45269;43.568;22.244;2023-04-25T01:06:15;3.83;;;3.42;;
59458;SDS011;45269;43.568;22.244;2023-04-25T01:08:40;4.68;;;3.92;;
59458;SDS011;45269;43.568;22.244;2023-04-25T01:11:05;3.85;;;3.53;;
59458;SDS011;45269;43.568;22.244;2023-04-25T01:13:31;6.78;;;4.18;;
59458;SDS011;45269;43.568;22.244;2023-04-25T01:15:57;5.32;;;4.82;;
59458;SDS011;45269;43.568;22.244;2023-04-25T01:18:22;5.97;;;4.95;;
59458;SDS011;45269;43.568;22.244;2023-04-25T01:20:49;6.60;;;4.93;;
59458;SDS011;45269;43.568;22.244;2023-04-25T01:23:15;8.82;;;4.78;;
59458;SDS011;45269;43.568;22.244;2023-04-25T01:25:41;5.93;;;3.95;;
59458;SDS011;45269;43.568;22.244;2023-04-25T01:28:06;4.55;;;3.50;;
59458;SDS011;45269;43.568;22.244;2023-04-25T01:30:32;6.90;;;5.50;;
59458;SDS011;45269;43.568;22.244;2023-04-25T01:32:58;9.93;;;6.60;;
59458;SDS011;45269;43.568;22.244;2023-04-25T01:35:24;7.93;;;6.60;;
59458;SDS011;45269;43.568;22.244;2023-04-25T01:37:50;7.82;;;6.40;;
59458;SDS011;45269;43.568;22.244;2023-04-25T01:40:16;14.45;;;9.55;;
59458;SDS011;45269;43.568;22.244;2023-04-25T01:42:43;11.32;;;9.07;;
59458;SDS011;45269;43.568;22.244;2023-04-25T01:45:09;12.52;;;9.20;;
59458;SDS011;45269;43.568;22.244;2023-04-25T01:47:36;11.85;;;8.05;;
59458;SDS011;45269;43.568;22.244;2023-04-25T01:50:05;7.10;;;5.88;;
59458;SDS011;45269;43.568;22.244;2023-04-25T01:52:30;6.93;;;5.70;;
59458;SDS011;45269;43.568;22.244;2023-04-25T01:54:57;8.05;;;6.60;;
59458;SDS011;45269;43.568;22.244;2023-04-25T01:57:22;8.20;;;7.40;;
59458;SDS011;45269;43.568;22.244;2023-04-25T01:59:47;9.60;;;8.27;;
59458;SDS011;45269;43.568;22.244;2023-04-25T02:02:13;8.18;;;6.50;;
59458;SDS011;45269;43.568;22.244;2023-04-25T02:04:38;10.68;;;9.27;;
59458;SDS011;45269;43.568;22.244;2023-04-25T02:07:03;13.32;;;9.05;;
59458;SDS011;45269;43.568;22.244;2023-04-25T02:09:29;10.25;;;8.75;;
59458;SDS011;45269;43.568;22.244;2023-04-25T02:11:54;7.82;;;6.13;;
59458;SDS011;45269;43.568;22.244;2023-04-25T02:14:20;5.18;;;4.65;;
59458;SDS011;45269;43.568;22.244;2023-04-25T02:16:45;11.40;;;7.68;;
59458;SDS011;45269;43.568;22.244;2023-04-25T02:19:11;18.95;;;9.57;;
59458;SDS011;45269;43.568;22.244;2023-04-25T02:21:36;10.10;;;7.20;;
59458;SDS011;45269;43.568;22.244;2023-04-25T02:24:02;7.97;;;7.03;;
59458;SDS011;45269;43.568;22.244;2023-04-25T02:26:27;11.65;;;8.57;;
59458;SDS011;45269;43.568;22.244;2023-04-25T02:28:53;9.05;;;7.43;;
59458;SDS011;45269;43.568;22.244;2023-04-25T02:31:18;12.85;;;8.18;;
59458;SDS011;45269;43.568;22.244;2023-04-25T02:33:43;11.38;;;8.60;;
59458;SDS011;45269;43.568;22.244;2023-04-25T02:36:09;10.20;;;7.88;;
59458;SDS011;45269;43.568;22.244;2023-04-25T02:38:34;6.20;;;4.47;;
59458;SDS011;45269;43.568;22.244;2023-04-25T02:41:00;8.95;;;7.35;;
59458;SDS011;45269;43.568;22.244;2023-04-25T02:43:25;9.20;;;7.85;;
59458;SDS011;45269;43.568;22.244;2023-04-25T02:45:50;8.90;;;7.90;;
59458;SDS011;45269;43.568;22.244;2023-04-25T02:48:16;7.43;;;5.60;;
59458;SDS011;45269;43.568;22.244;2023-04-25T02:50:41;5.53;;;4.32;;
59458;SDS011;45269;43.568;22.244;2023-04-25T02:53:07;6.93;;;3.65;;
59458;SDS011;45269;43.568;22.244;2023-04-25T02:55:32;3.50;;;3.20;;
59458;SDS011;45269;43.568;22.244;2023-04-25T02:57:57;3.58;;;3.15;;
59458;SDS011;45269;43.568;22.244;2023-04-25T03:00:23;4.75;;;2.55;;
59458;SDS011;45269;43.568;22.244;2023-04-25T03:02:49;3.70;;;3.00;;
59458;SDS011;45269;43.568;22.244;2023-04-25T03:05:14;4.75;;;2.78;;
59458;SDS011;45269;43.568;22.244;2023-04-25T03:07:40;4.93;;;2.42;;
59458;SDS011;45269;43.568;22.244;2023-04-25T03:10:06;2.55;;;1.75;;
59458;SDS011;45269;43.568;22.244;2023-04-25T03:12:31;2.72;;;1.63;;
59458;SDS011;45269;43.568;22.244;2023-04-25T03:14:57;4.05;;;2.05;;
59458;SDS011;45269;43.568;22.244;2023-04-25T03:17:22;2.92;;;1.98;;
59458;SDS011;45269;43.568;22.244;2023-04-25T03:19:47;3.03;;;1.65;;
59458;SDS011;45269;43.568;22.244;2023-04-25T03:22:13;4.03;;;1.80;;
59458;SDS011;45269;43.568;22.244;2023-04-25T03:24:38;2.97;;;1.77;;
59458;SDS011;45269;43.568;22.244;2023-04-25T03:27:04;1.85;;;1.65;;
59458;SDS011;45269;43.568;22.244;2023-04-25T03:29:29;8.90;;;7.25;;
59458;SDS011;45269;43.568;22.244;2023-04-25T03:31:54;14.18;;;9.38;;
59458;SDS011;45269;43.568;22.244;2023-04-25T03:34:20;8.25;;;5.93;;
59458;SDS011;45269;43.568;22.244;2023-04-25T03:36:46;10.23;;;6.63;;
59458;SDS011;45269;43.568;22.244;2023-04-25T03:39:11;11.57;;;7.43;;
59458;SDS011;45269;43.568;22.244;2023-04-25T03:41:37;5.72;;;4.85;;
59458;SDS011;45269;43.568;22.244;2023-04-25T03:44:02;16.55;;;7.57;;
59458;SDS011;45269;43.568;22.244;2023-04-25T03:46:28;7.25;;;5.30;;
59458;SDS011;45269;43.568;22.244;2023-04-25T03:48:53;7.15;;;4.43;;
59458;SDS011;45269;43.568;22.244;2023-04-25T03:51:18;12.73;;;7.40;;
59458;SDS011;45269;43.568;22.244;2023-04-25T03:53:43;12.00;;;8.38;;
59458;SDS011;45269;43.568;22.244;2023-04-25T03:56:09;10.63;;;7.55;;
59458;SDS011;45269;43.568;22.244;2023-04-25T03:58:34;14.48;;;13.07;;
59458;SDS011;45269;43.568;22.244;2023-04-25T04:01:00;10.70;;;9.70;;
59458;SDS011;45269;43.568;22.244;2023-04-25T04:03:25;4.32;;;3.78;;
59458;SDS011;45269;43.568;22.244;2023-04-25T04:05:51;4.05;;;3.75;;
59458;SDS011;45269;43.568;22.244;2023-04-25T04:08:16;4.32;;;2.88;;
59458;SDS011;45269;43.568;22.244;2023-04-25T04:10:41;3.17;;;2.60;;
59458;SDS011;45269;43.568;22.244;2023-04-25T04:13:07;5.20;;;3.38;;
59458;SDS011;45269;43.568;22.244;2023-04-25T04:15:32;3.90;;;3.50;;
59458;SDS011;45269;43.568;22.244;2023-04-25T04:17:58;3.90;;;3.05;;
59458;SDS011;45269;43.568;22.244;2023-04-25T04:20:27;7.57;;;5.38;;
59458;SDS011;45269;43.568;22.244;2023-04-25T04:22:52;7.95;;;5.63;;
59458;SDS011;45269;43.568;22.244;2023-04-25T04:25:18;31.95;;;21.73;;
59458;SDS011;45269;43.568;22.244;2023-04-25T04:27:43;29.05;;;18.55;;
59458;SDS011;45269;43.568;22.244;2023-04-25T04:30:09;94.80;;;59.33;;
59458;SDS011;45269;43.568;22.244;2023-04-25T04:32:35;36.08;;;25.15;;
59458;SDS011;45269;43.568;22.244;2023-04-25T04:35:02;47.22;;;35.58;;
59458;SDS011;45269;43.568;22.244;2023-04-25T04:37:29;105.15;;;82.70;;
59458;SDS011;45269;43.568;22.244;2023-04-25T04:39:55;20.70;;;18.08;;
59458;SDS011;45269;43.568;22.244;2023-04-25T04:42:20;15.75;;;13.20;;
59458;SDS011;45269;43.568;22.244;2023-04-25T04:44:46;15.15;;;11.63;;
59458;SDS011;45269;43.568;22.244;2023-04-25T04:47:11;41.70;;;34.97;;
59458;SDS011;45269;43.568;22.244;2023-04-25T04:49:37;8.35;;;7.13;;
59458;SDS011;45269;43.568;22.244;2023-04-25T04:52:03;31.23;;;27.70;;
59458;SDS011;45269;43.568;22.244;2023-04-25T04:54:28;12.15;;;10.85;;
59458;SDS011;45269;43.568;22.244;2023-04-25T04:56:53;6.50;;;5.28;;
59458;SDS011;45269;43.568;22.244;2023-04-25T04:59:19;13.63;;;8.00;;
59458;SDS011;45269;43.568;22.244;2023-04-25T05:01:45;11.48;;;9.40;;
59458;SDS011;45269;43.568;22.244;2023-04-25T05:04:11;18.83;;;14.35;;
59458;SDS011;45269;43.568;22.244;2023-04-25T05:06:37;10.85;;;8.20;;
59458;SDS011;45269;43.568;22.244;2023-04-25T05:09:02;9.90;;;6.72;;
59458;SDS011;45269;43.568;22.244;2023-04-25T05:11:28;18.38;;;16.40;;
59458;SDS011;45269;43.568;22.244;2023-04-25T05:13:54;23.25;;;17.08;;
59458;SDS011;45269;43.568;22.244;2023-04-25T05:16:19;23.92;;;19.10;;
59458;SDS011;45269;43.568;22.244;2023-04-25T05:18:45;27.90;;;22.10;;
59458;SDS011;45269;43.568;22.244;2023-04-25T05:21:11;30.63;;;23.27;;
59458;SDS011;45269;43.568;22.244;2023-04-25T05:23:36;27.13;;;23.35;;
59458;SDS011;45269;43.568;22.244;2023-04-25T05:26:01;29.25;;;25.02;;
59458;SDS011;45269;43.568;22.244;2023-04-25T05:28:27;30.38;;;26.48;;
59458;SDS011;45269;43.568;22.244;2023-04-25T05:30:52;22.48;;;19.27;;
59458;SDS011;45269;43.568;22.244;2023-04-25T05:33:18;7.05;;;6.35;;
59458;SDS011;45269;43.568;22.244;2023-04-25T05:35:43;9.00;;;8.05;;
59458;SDS011;45269;43.568;22.244;2023-04-25T05:38:08;7.78;;;6.13;;
59458;SDS011;45269;43.568;22.244;2023-04-25T05:40:34;6.53;;;5.50;;
59458;SDS011;45269;43.568;22.244;2023-04-25T05:42:59;6.70;;;5.55;;
59458;SDS011;45269;43.568;22.244;2023-04-25T05:45:25;10.13;;;7.32;;
59458;SDS011;45269;43.568;22.244;2023-04-25T05:47:50;13.02;;;6.95;;
59458;SDS011;45269;43.568;22.244;2023-04-25T05:50:15;9.00;;;6.82;;
59458;SDS011;45269;43.568;22.244;2023-04-25T05:52:41;10.23;;;6.00;;
59458;SDS011;45269;43.568;22.244;2023-04-25T05:55:06;7.55;;;5.10;;
59458;SDS011;45269;43.568;22.244;2023-04-25T05:57:32;11.88;;;6.28;;
59458;SDS011;45269;43.568;22.244;2023-04-25T05:59:57;5.53;;;3.42;;
59458;SDS011;45269;43.568;22.244;2023-04-25T06:02:23;14.40;;;4.95;;
59458;SDS011;45269;43.568;22.244;2023-04-25T06:04:51;9.55;;;8.63;;
59458;SDS011;45269;43.568;22.244;2023-04-25T06:07:17;5.97;;;5.27;;
59458;SDS011;45269;43.568;22.244;2023-04-25T06:09:43;7.90;;;6.07;;
59458;SDS011;45269;43.568;22.244;2023-04-25T06:12:08;6.47;;;4.43;;
59458;SDS011;45269;43.568;22.244;2023-04-25T06:14:34;7.30;;;5.07;;
59458;SDS011;45269;43.568;22.244;2023-04-25T06:16:59;6.28;;;4.95;;
59458;SDS011;45269;43.568;22.244;2023-04-25T06:19:31;4.15;;;3.20;;
59458;SDS011;45269;43.568;22.244;2023-04-25T06:21:56;7.32;;;6.45;;
59458;SDS011;45269;43.568;22.244;2023-04-25T06:24:21;11.77;;;9.13;;
59458;SDS011;45269;43.568;22.244;2023-04-25T06:26:47;7.00;;;6.30;;
59458;SDS011;45269;43.568;22.244;2023-04-25T06:29:12;5.82;;;3.53;;
59458;SDS011;45269;43.568;22.244;2023-04-25T06:31:37;5.05;;;2.90;;
59458;SDS011;45269;43.568;22.244;2023-04-25T06:34:03;8.23;;;3.75;;
59458;SDS011;45269;43.568;22.244;2023-04-25T06:36:28;9.45;;;5.68;;
59458;SDS011;45269;43.568;22.244;2023-04-25T06:38:53;8.77;;;4.50;;
59458;SDS011;45269;43.568;22.244;2023-04-25T06:41:19;8.45;;;5.10;;
59458;SDS011;45269;43.568;22.244;2023-04-25T06:43:45;8.07;;;5.85;;
59458;SDS011;45269;43.568;22.244;2023-04-25T06:46:10;11.05;;;8.60;;
59458;SDS011;45269;43.568;22.244;2023-04-25T06:48:36;10.68;;;6.57;;
59458;SDS011;45269;43.568;22.244;2023-04-25T06:51:01;9.35;;;5.50;;
59458;SDS011;45269;43.568;22.244;2023-04-25T06:53:26;8.88;;;4.50;;
59458;SDS011;45269;43.568;22.244;2023-04-25T06:55:52;12.43;;;4.45;;
59458;SDS011;45269;43.568;22.244;2023-04-25T06:58:17;12.00;;;2.95;;
59458;SDS011;45269;43.568;22.244;2023-04-25T07:00:43;8.68;;;2.65;;
59458;SDS011;45269;43.568;22.244;2023-04-25T07:03:08;3.90;;;2.30;;
59458;SDS011;45269;43.568;22.244;2023-04-25T07:05:33;24.88;;;9.77;;
59458;SDS011;45269;43.568;22.244;2023-04-25T07:07:59;8.07;;;3.30;;
59458;SDS011;45269;43.568;22.244;2023-04-25T07:10:25;26.70;;;17.13;;
59458;SDS011;45269;43.568;22.244;2023-04-25T07:12:50;16.27;;;12.52;;
59458;SDS011;45269;43.568;22.244;2023-04-25T07:15:16;5.90;;;3.13;;
59458;SDS011;45269;43.568;22.244;2023-04-25T07:17:41;6.70;;;4.70;;
59458;SDS011;45269;43.568;22.244;2023-04-25T07:20:07;11.63;;;6.07;;
59458;SDS011;45269;43.568;22.244;2023-04-25T07:22:34;7.63;;;4.25;;
59458;SDS011;45269;43.568;22.244;2023-04-25T07:24:59;12.98;;;4.63;;
59458;SDS011;45269;43.568;22.244;2023-04-25T07:27:25;4.25;;;2.85;;
59458;SDS011;45269;43.568;22.244;2023-04-25T07:29:50;5.45;;;3.45;;
59458;SDS011;45269;43.568;22.244;2023-04-25T07:32:15;8.85;;;5.57;;
59458;SDS011;45269;43.568;22.244;2023-04-25T07:34:41;2.85;;;2.60;;
59458;SDS011;45269;43.568;22.244;2023-04-25T07:37:07;3.65;;;2.90;;
59458;SDS011;45269;43.568;22.244;2023-04-25T07:39:32;3.97;;;3.58;;
59458;SDS011;45269;43.568;22.244;2023-04-25T07:41:58;7.03;;;5.28;;
59458;SDS011;45269;43.568;22.244;2023-04-25T07:44:25;6.90;;;3.88;;
59458;SDS011;45269;43.568;22.244;2023-04-25T07:46:51;3.92;;;2.63;;
59458;SDS011;45269;43.568;22.244;2023-04-25T07:49:16;4.78;;;2.90;;
59458;SDS011;45269;43.568;22.244;2023-04-25T07:51:41;3.55;;;2.20;;
59458;SDS011;45269;43.568;22.244;2023-04-25T07:54:08;4.85;;;2.88;;
59458;SDS011;45269;43.568;22.244;2023-04-25T07:56:34;3.03;;;2.53;;
59458;SDS011;45269;43.568;22.244;2023-04-25T07:59:00;3.90;;;3.15;;
59458;SDS011;45269;43.568;22.244;2023-04-25T08:01:25;4.50;;;2.08;;
59458;SDS011;45269;43.568;22.244;2023-04-25T08:03:52;3.53;;;1.60;;
59458;SDS011;45269;43.568;22.244;2023-04-25T08:06:17;3.75;;;1.77;;
59458;SDS011;45269;43.568;22.244;2023-04-25T08:08:42;2.15;;;1.73;;
59458;SDS011;45269;43.568;22.244;2023-04-25T08:11:08;2.28;;;1.80;;
59458;SDS011;45269;43.568;22.244;2023-04-25T08:13:33;2.58;;;1.52;;
59458;SDS011;45269;43.568;22.244;2023-04-25T08:15:58;2.95;;;1.92;;
59458;SDS011;45269;43.568;22.244;2023-04-25T08:18:24;1.60;;;1.42;;
59458;SDS011;45269;43.568;22.244;2023-04-25T08:20:49;3.33;;;1.80;;
59458;SDS011;45269;43.568;22.244;2023-04-25T08:23:15;3.33;;;2.50;;
59458;SDS011;45269;43.568;22.244;2023-04-25T08:25:40;3.63;;;1.70;;
59458;SDS011;45269;43.568;22.244;2023-04-25T08:28:06;2.47;;;1.45;;
59458;SDS011;45269;43.568;22.244;2023-04-25T08:30:31;7.00;;;3.95;;
59458;SDS011;45269;43.568;22.244;2023-04-25T08:32:56;4.40;;;3.03;;
59458;SDS011;45269;43.568;22.244;2023-04-25T08:35:22;5.05;;;2.70;;
59458;SDS011;45269;43.568;22.244;2023-04-25T08:37:48;5.10;;;3.88;;
59458;SDS011;45269;43.568;22.244;2023-04-25T08:40:14;6.93;;;4.78;;
59458;SDS011;45269;43.568;22.244;2023-04-25T08:42:43;7.40;;;6.05;;
59458;SDS011;45269;43.568;22.244;2023-04-25T08:45:09;5.18;;;2.13;;
59458;SDS011;45269;43.568;22.244;2023-04-25T08:47:35;8.55;;;2.90;;
59458;SDS011;45269;43.568;22.244;2023-04-25T08:50:03;8.60;;;4.93;;
59458;SDS011;45269;43.568;22.244;2023-04-25T08:52:30;2.35;;;1.63;;
59458;SDS011;45269;43.568;22.244;2023-04-25T08:54:57;3.05;;;2.50;;
59458;SDS011;45269;43.568;22.244;2023-04-25T08:57:23;2.90;;;2.50;;
59458;SDS011;45269;43.568;22.244;2023-04-25T08:59:49;4.30;;;2.55;;
59458;SDS011;45269;43.568;22.244;2023-04-25T09:02:15;1.38;;;1.10;;
59458;SDS011;45269;43.568;22.244;2023-04-25T09:04:43;1.80;;;1.25;;
59458;SDS011;45269;43.568;22.244;2023-04-25T09:07:09;1.88;;;1.27;;
59458;SDS011;45269;43.568;22.244;2023-04-25T09:09:34;3.13;;;1.85;;
59458;SDS011;45269;43.568;22.244;2023-04-25T09:12:01;1.60;;;1.50;;
59458;SDS011;45269;43.568;22.244;2023-04-25T09:14:26;1.48;;;1.33;;
59458;SDS011;45269;43.568;22.244;2023-04-25T09:19:25;2.40;;;1.95;;
59458;SDS011;45269;43.568;22.244;2023-04-25T09:21:51;5.60;;;3.83;;
59458;SDS011;45269;43.568;22.244;2023-04-25T09:24:28;10.40;;;7.20;;
59458;SDS011;45269;43.568;22.244;2023-04-25T09:26:55;8.38;;;7.32;;
59458;SDS011;45269;43.568;22.244;2023-04-25T09:29:20;11.80;;;8.00;;
59458;SDS011;45269;43.568;22.244;2023-04-25T09:31:53;14.82;;;10.05;;
59458;SDS011;45269;43.568;22.244;2023-04-25T09:34:34;13.75;;;9.93;;
59458;SDS011;45269;43.568;22.244;2023-04-25T09:37:03;15.73;;;10.02;;
59458;SDS011;45269;43.568;22.244;2023-04-25T09:39:29;9.40;;;5.78;;
59458;SDS011;45269;43.568;22.244;2023-04-25T09:41:54;16.75;;;9.38;;
59458;SDS011;45269;43.568;22.244;2023-04-25T09:44:23;15.30;;;9.65;;
59458;SDS011;45269;43.568;22.244;2023-04-25T09:46:49;5.65;;;3.97;;
59458;SDS011;45269;43.568;22.244;2023-04-25T09:51:47;3.60;;;2.50;;
59458;SDS011;45269;43.568;22.244;2023-04-25T09:54:18;3.83;;;2.78;;
59458;SDS011;45269;43.568;22.244;2023-04-25T09:56:43;9.75;;;6.18;;
59458;SDS011;45269;43.568;22.244;2023-04-25T09:59:12;5.03;;;3.50;;
59458;SDS011;45269;43.568;22.244;2023-04-25T10:01:38;4.80;;;3.78;;
59458;SDS011;45269;43.568;22.244;2023-04-25T10:04:05;3.33;;;2.90;;
59458;SDS011;45269;43.568;22.244;2023-04-25T10:06:31;3.58;;;2.78;;
59458;SDS011;45269;43.568;22.244;2023-04-25T10:08:59;4.47;;;3.97;;
59458;SDS011;45269;43.568;22.244;2023-04-25T10:11:25;7.70;;;5.00;;
59458;SDS011;45269;43.568;22.244;2023-04-25T10:13:51;2.63;;;2.42;;
59458;SDS011;45269;43.568;22.244;2023-04-25T10:16:17;6.32;;;5.57;;
59458;SDS011;45269;43.568;22.244;2023-04-25T10:18:42;12.40;;;9.02;;
59458;SDS011;45269;43.568;22.244;2023-04-25T10:21:08;14.43;;;10.77;;
59458;SDS011;45269;43.568;22.244;2023-04-25T10:23:33;16.90;;;12.07;;
59458;SDS011;45269;43.568;22.244;2023-04-25T10:25:59;5.38;;;4.80;;
59458;SDS011;45269;43.568;22.244;2023-04-25T10:28:25;3.50;;;3.20;;
59458;SDS011;45269;43.568;22.244;2023-04-25T10:31:01;4.95;;;4.00;;
59458;SDS011;45269;43.568;22.244;2023-04-25T10:33:34;3.80;;;3.50;;
59458;SDS011;45269;43.568;22.244;2023-04-25T10:36:15;5.20;;;4.70;;
59458;SDS011;45269;43.568;22.244;2023-04-25T10:38:42;7.45;;;6.15;;
59458;SDS011;45269;43.568;22.244;2023-04-25T10:41:08;4.72;;;4.43;;
59458;SDS011;45269;43.568;22.244;2023-04-25T10:46:19;5.85;;;5.35;;
59458;SDS011;45269;43.568;22.244;2023-04-25T10:48:53;6.95;;;6.45;;
59458;SDS011;45269;43.568;22.244;2023-04-25T10:51:22;5.30;;;4.80;;
59458;SDS011;45269;43.568;22.244;2023-04-25T10:53:58;8.05;;;7.25;;
59458;SDS011;45269;43.568;22.244;2023-04-25T10:56:25;17.17;;;14.52;;
59458;SDS011;45269;43.568;22.244;2023-04-25T10:58:51;30.70;;;27.50;;
59458;SDS011;45269;43.568;22.244;2023-04-25T11:01:20;6.30;;;5.80;;
59458;SDS011;45269;43.568;22.244;2023-04-25T11:03:45;8.38;;;7.70;;
59458;SDS011;45269;43.568;22.244;2023-04-25T11:06:19;9.30;;;8.48;;
59458;SDS011;45269;43.568;22.244;2023-04-25T11:08:49;7.22;;;6.63;;
59458;SDS011;45269;43.568;22.244;2023-04-25T11:11:16;10.77;;;9.68;;
59458;SDS011;45269;43.568;22.244;2023-04-25T11:13:41;14.98;;;13.48;;
59458;SDS011;45269;43.568;22.244;2023-04-25T11:16:07;12.45;;;11.35;;
59458;SDS011;45269;43.568;22.244;2023-04-25T11:18:32;15.15;;;10.65;;
59458;SDS011;45269;43.568;22.244;2023-04-25T11:20:59;12.63;;;11.63;;
59458;SDS011;45269;43.568;22.244;2023-04-25T11:23:24;12.32;;;11.20;;
59458;SDS011;45269;43.568;22.244;2023-04-25T11:25:51;14.15;;;12.88;;
59458;SDS011;45269;43.568;22.244;2023-04-25T11:28:20;13.55;;;12.30;;
59458;SDS011;45269;43.568;22.244;2023-04-25T11:30:50;14.32;;;13.02;;
59458;SDS011;45269;43.568;22.244;2023-04-25T11:33:15;13.65;;;12.27;;
59458;SDS011;45269;43.568;22.244;2023-04-25T11:35:41;14.73;;;13.27;;
59458;SDS011;45269;43.568;22.244;2023-04-25T11:38:06;17.15;;;15.65;;
59458;SDS011;45269;43.568;22.244;2023-04-25T11:40:32;19.30;;;17.40;;
59458;SDS011;45269;43.568;22.244;2023-04-25T11:42:59;19.83;;;17.85;;
59458;SDS011;45269;43.568;22.244;2023-04-25T11:45:24;25.15;;;22.70;;
59458;SDS011;45269;43.568;22.244;2023-04-25T11:47:50;22.60;;;20.40;;
59458;SDS011;45269;43.568;22.244;2023-04-25T11:50:15;17.63;;;16.02;;
59458;SDS011;45269;43.568;22.244;2023-04-25T11:52:42;17.60;;;15.90;;
59458;SDS011;45269;43.568;22.244;2023-04-25T11:55:08;20.40;;;18.50;;
59458;SDS011;45269;43.568;22.244;2023-04-25T11:57:33;22.10;;;20.02;;
59458;SDS011;45269;43.568;22.244;2023-04-25T12:00:09;16.05;;;14.55;;
59458;SDS011;45269;43.568;22.244;2023-04-25T12:02:36;15.48;;;14.07;;
59458;SDS011;45269;43.568;22.244;2023-04-25T12:05:01;16.85;;;14.18;;
59458;SDS011;45269;43.568;22.244;2023-04-25T12:07:31;14.73;;;13.32;;
59458;SDS011;45269;43.568;22.244;2023-04-25T12:09:56;13.40;;;12.10;;
59458;SDS011;45269;43.568;22.244;2023-04-25T12:12:21;11.85;;;10.75;;
59458;SDS011;45269;43.568;22.244;2023-04-25T12:14:51;11.63;;;10.65;;
59458;SDS011;45269;43.568;22.244;2023-04-25T12:17:17;10.55;;;9.65;;
59458;SDS011;45269;43.568;22.244;2023-04-25T12:19:42;12.40;;;11.20;;
59458;SDS011;45269;43.568;22.244;2023-04-25T12:22:19;12.32;;;10.30;;
59458;SDS011;45269;43.568;22.244;2023-04-25T12:24:45;12.15;;;11.15;;
59458;SDS011;45269;43.568;22.244;2023-04-25T12:27:10;7.30;;;6.78;;
59458;SDS011;45269;43.568;22.244;2023-04-25T12:29:35;9.75;;;8.85;;
59458;SDS011;45269;43.568;22.244;2023-04-25T12:32:01;7.20;;;6.65;;
59458;SDS011;45269;43.568;22.244;2023-04-25T12:34:26;8.15;;;7.45;;
59458;SDS011;45269;43.568;22.244;2023-04-25T12:36:52;8.68;;;7.88;;
59458;SDS011;45269;43.568;22.244;2023-04-25T12:39:21;9.30;;;8.50;;
59458;SDS011;45269;43.568;22.244;2023-04-25T12:41:48;9.45;;;8.65;;
59458;SDS011;45269;43.568;22.244;2023-04-25T12:44:13;10.10;;;9.05;;
59458;SDS011;45269;43.568;22.244;2023-04-25T12:46:39;10.23;;;9.15;;
59458;SDS011;45269;43.568;22.244;2023-04-25T12:49:05;7.20;;;6.60;;
59458;SDS011;45269;43.568;22.244;2023-04-25T12:51:32;7.38;;;6.78;;
59458;SDS011;45269;43.568;22.244;2023-04-25T12:53:58;7.22;;;6.63;;
59458;SDS011;45269;43.568;22.244;2023-04-25T12:56:23;6.53;;;5.93;;
59458;SDS011;45269;43.568;22.244;2023-04-25T12:58:49;13.80;;;10.57;;
59458;SDS011;45269;43.568;22.244;2023-04-25T13:01:15;10.93;;;9.82;;
59458;SDS011;45269;43.568;22.244;2023-04-25T13:03:40;9.75;;;8.85;;
59458;SDS011;45269;43.568;22.244;2023-04-25T13:06:06;10.77;;;9.68;;
59458;SDS011;45269;43.568;22.244;2023-04-25T13:08:31;22.88;;;17.42;;
59458;SDS011;45269;43.568;22.244;2023-04-25T13:10:56;12.40;;;11.05;;
59458;SDS011;45269;43.568;22.244;2023-04-25T13:13:22;12.60;;;11.30;;
59458;SDS011;45269;43.568;22.244;2023-04-25T13:15:47;14.27;;;12.82;;
59458;SDS011;45269;43.568;22.244;2023-04-25T13:18:12;22.98;;;19.25;;
59458;SDS011;45269;43.568;22.244;2023-04-25T13:20:38;17.83;;;14.73;;
59458;SDS011;45269;43.568;22.244;2023-04-25T13:23:03;23.98;;;20.33;;
59458;SDS011;45269;43.568;22.244;2023-04-25T13:25:28;38.58;;;29.90;;
59458;SDS011;45269;43.568;22.244;2023-04-25T13:27:54;26.20;;;21.38;;
59458;SDS011;45269;43.568;22.244;2023-04-25T13:30:20;43.00;;;30.25;;
59458;SDS011;45269;43.568;22.244;2023-04-25T13:32:46;13.27;;;12.07;;
59458;SDS011;45269;43.568;22.244;2023-04-25T13:35:12;19.08;;;16.33;;
59458;SDS011;45269;43.568;22.244;2023-04-25T13:37:38;13.68;;;12.07;;
59458;SDS011;45269;43.568;22.244;2023-04-25T13:40:04;19.67;;;15.73;;
59458;SDS011;45269;43.568;22.244;2023-04-25T13:42:31;23.77;;;20.25;;
59458;SDS011;45269;43.568;22.244;2023-04-25T13:44:56;15.82;;;14.13;;
59458;SDS011;45269;43.568;22.244;2023-04-25T13:47:22;17.80;;;16.02;;
59458;SDS011;45269;43.568;22.244;2023-04-25T13:49:48;12.68;;;11.48;;
59458;SDS011;45269;43.568;22.244;2023-04-25T13:52:13;12.95;;;11.73;;
59458;SDS011;45269;43.568;22.244;2023-04-25T13:54:38;9.68;;;8.60;;
59458;SDS011;45269;43.568;22.244;2023-04-25T13:57:04;9.35;;;8.32;;
59458;SDS011;45269;43.568;22.244;2023-04-25T13:59:30;13.70;;;12.40;;
59458;SDS011;45269;43.568;22.244;2023-04-25T14:01:55;9.18;;;8.38;;
59458;SDS011;45269;43.568;22.244;2023-04-25T14:04:20;11.50;;;10.10;;
59458;SDS011;45269;43.568;22.244;2023-04-25T14:06:46;8.85;;;8.10;;
59458;SDS011;45269;43.568;22.244;2023-04-25T14:09:11;12.25;;;10.93;;
59458;SDS011;45269;43.568;22.244;2023-04-25T14:11:38;13.40;;;12.00;;
59458;SDS011;45269;43.568;22.244;2023-04-25T14:14:03;17.40;;;12.75;;
59458;SDS011;45269;43.568;22.244;2023-04-25T14:16:29;22.52;;;17.38;;
59458;SDS011;45269;43.568;22.244;2023-04-25T14:18:55;17.45;;;15.40;;
59458;SDS011;45269;43.568;22.244;2023-04-25T14:21:21;12.05;;;10.95;;
59458;SDS011;45269;43.568;22.244;2023-04-25T14:23:46;24.27;;;21.67;;
59458;SDS011;45269;43.568;22.244;2023-04-25T14:26:12;16.65;;;14.85;;